createdAt,value
2019-02-12T00:00:25.413Z,4.10
2019-02-12T00:05:30.259Z,3.30
2019-02-12T00:10:36.851Z,2.90
2019-02-12T00:15:41.171Z,2.20
2019-02-12T00:20:45.808Z,1.23
2019-02-12T00:25:50.562Z,1.83
2019-02-12T00:30:55.303Z,1.83
2019-02-12T00:36:00.044Z,0.40
2019-02-12T00:41:04.788Z,0.80
2019-02-12T00:46:09.534Z,0.50
2019-02-12T00:51:17.916Z,1.23
2019-02-12T00:56:20.443Z,0.60
2019-02-12T01:01:24.971Z,0.57
2019-02-12T01:06:29.622Z,0.60
2019-02-12T01:11:34.259Z,0.70
2019-02-12T01:16:38.900Z,0.80
2019-02-12T01:21:43.653Z,1.13
2019-02-12T01:26:48.223Z,1.20
2019-02-12T01:31:52.948Z,1.67
2019-02-12T01:36:57.471Z,0.87
2019-02-12T01:42:02.005Z,1.10
2019-02-12T01:47:06.558Z,3.50
2019-02-12T01:52:11.293Z,4.50
2019-02-12T01:57:15.932Z,2.60
2019-02-12T02:02:20.575Z,4.00
2019-02-12T02:07:25.217Z,2.77
2019-02-12T02:12:29.843Z,4.40
2019-02-12T02:17:34.693Z,1.80
2019-02-12T02:22:39.440Z,1.33
2019-02-12T02:27:44.184Z,2.70
2019-02-12T02:32:48.813Z,1.90
2019-02-12T02:37:53.568Z,1.03
2019-02-12T02:42:58.311Z,1.50
2019-02-12T02:48:03.050Z,2.40
2019-02-12T02:53:07.684Z,1.57
2019-02-12T02:58:12.435Z,2.53
2019-02-12T03:03:17.589Z,6.47
2019-02-12T03:08:22.333Z,1.70
2019-02-12T03:13:27.075Z,3.70
2019-02-12T03:18:31.725Z,7.10
2019-02-12T03:23:36.258Z,1.90
2019-02-12T03:28:40.995Z,2.80
2019-02-12T03:33:45.755Z,2.63
2019-02-12T03:38:50.380Z,1.67
2019-02-12T03:43:55.007Z,1.77
2019-02-12T03:48:59.863Z,1.80
2019-02-12T03:54:04.500Z,1.97
2019-02-12T03:59:09.245Z,1.70
2019-02-12T04:04:14.091Z,1.97
2019-02-12T04:09:18.835Z,2.00
2019-02-12T04:14:23.576Z,2.40
2019-02-12T04:19:28.203Z,2.40
2019-02-12T04:24:32.848Z,3.73
2019-02-12T04:29:37.384Z,3.27
2019-02-12T04:34:42.138Z,5.27
2019-02-12T04:39:46.877Z,2.73
2019-02-12T04:44:51.409Z,2.10
2019-02-12T04:49:56.057Z,2.60
2019-02-12T04:55:00.697Z,2.57
2019-02-12T05:00:08.720Z,1.80
2019-02-12T05:05:14.077Z,1.80
2019-02-12T05:10:27.727Z,1.87
2019-02-12T05:15:32.835Z,1.30
2019-02-12T05:20:37.419Z,2.30
2019-02-12T05:25:43.360Z,1.80
2019-02-12T05:30:48.150Z,2.53
2019-02-12T05:35:52.766Z,3.40
2019-02-12T05:40:57.514Z,3.60
2019-02-12T05:46:02.158Z,10.70
2019-02-12T05:51:06.801Z,6.50
2019-02-12T05:56:11.644Z,4.20
2019-02-12T06:01:18.024Z,7.90
2019-02-12T06:06:24.396Z,4.03
2019-02-12T06:11:29.149Z,6.63
2019-02-12T06:16:35.530Z,4.23
2019-02-12T06:21:40.478Z,2.40
2019-02-12T06:26:45.217Z,3.83
2019-02-12T06:31:50.068Z,4.93
2019-02-12T06:36:56.340Z,4.30
2019-02-12T06:42:01.196Z,3.67
2019-02-12T06:47:05.945Z,3.80
2019-02-12T06:52:10.670Z,7.83
2019-02-12T06:57:15.514Z,2.20
2019-02-12T07:02:39.413Z,3.90
2019-02-12T07:08:14.457Z,6.07
2019-02-12T07:32:50.901Z,5.43
2019-02-12T07:38:11.000Z,3.67
2019-02-12T07:43:21.683Z,1.77
2019-02-12T07:48:31.209Z,3.23
2019-02-12T07:53:53.900Z,2.03
2019-02-12T07:59:19.951Z,1.80
2019-02-12T08:04:39.848Z,3.47
2019-02-12T08:10:19.814Z,3.37
2019-02-12T08:15:42.675Z,6.03
2019-02-12T08:21:10.462Z,2.50
2019-02-12T08:26:26.970Z,2.67
2019-02-12T08:31:53.023Z,3.47
2019-02-12T08:37:03.510Z,8.30
2019-02-12T08:42:14.179Z,1.70
2019-02-12T08:47:42.886Z,2.30
2019-02-12T08:52:50.702Z,3.60
2019-02-12T08:58:01.138Z,8.33
2019-02-12T09:03:25.477Z,6.90
2019-02-12T09:08:53.362Z,3.27
2019-02-12T09:14:01.067Z,7.37
2019-02-12T09:19:28.868Z,2.53
2019-02-12T09:24:42.310Z,4.17
2019-02-12T09:30:11.519Z,4.40
2019-02-12T09:35:31.248Z,3.23
2019-02-12T09:41:00.124Z,2.63
2019-02-12T09:46:25.761Z,3.13
2019-02-12T09:52:06.851Z,6.90
2019-02-12T09:57:29.825Z,3.70
2019-02-12T10:02:40.185Z,5.53
2019-02-12T10:07:48.109Z,2.87
2019-02-12T10:13:05.251Z,11.97
2019-02-12T10:18:21.870Z,29.17
2019-02-12T10:24:05.015Z,2.97
2019-02-12T10:29:15.693Z,8.73
2019-02-12T10:34:20.201Z,6.77
2019-02-12T10:39:24.886Z,5.30
2019-02-12T10:44:29.495Z,16.87
2019-02-12T10:49:34.473Z,6.43
2019-02-12T10:54:39.309Z,5.57
2019-02-12T10:59:44.241Z,4.73
2019-02-12T11:04:48.993Z,3.57
2019-02-12T11:09:54.968Z,4.13
2019-02-12T11:14:59.812Z,3.17
2019-02-12T11:20:07.219Z,21.07
2019-02-12T11:25:12.119Z,6.43
2019-02-12T11:30:17.118Z,3.30
2019-02-12T11:55:15.486Z,14.00
2019-02-12T12:00:24.766Z,5.33
2019-02-12T12:05:29.700Z,4.30
2019-02-12T12:10:34.361Z,4.23
2019-02-12T12:15:39.482Z,2.73
2019-02-12T12:20:44.259Z,5.63
2019-02-12T12:25:49.107Z,3.90
2019-02-12T12:30:53.844Z,3.43
2019-02-12T12:35:58.584Z,3.13
2019-02-12T12:41:03.430Z,4.07
2019-02-12T12:46:08.187Z,10.67
2019-02-12T12:51:13.219Z,5.90
2019-02-12T12:56:17.883Z,19.53
2019-02-12T13:01:22.609Z,6.10
2019-02-12T13:06:28.340Z,6.57
2019-02-12T13:11:33.423Z,8.27
2019-02-12T13:16:38.051Z,4.20
2019-02-12T13:21:43.502Z,6.43
2019-02-12T13:26:48.266Z,4.50
2019-02-12T13:31:53.006Z,3.87
2019-02-12T13:36:57.760Z,9.10
2019-02-12T13:42:02.699Z,7.40
2019-02-12T13:47:07.543Z,7.47
2019-02-12T13:52:12.387Z,8.30
2019-02-12T13:57:17.237Z,8.57
2019-02-12T14:02:21.903Z,12.57
2019-02-12T14:07:27.645Z,7.20
2019-02-12T14:12:32.382Z,9.17
2019-02-12T14:17:37.235Z,6.30
2019-02-12T14:22:42.388Z,12.73
2019-02-12T14:27:47.228Z,44.37
2019-02-12T14:32:52.500Z,39.40
2019-02-12T14:37:57.324Z,20.03
2019-02-12T14:43:02.174Z,15.93
2019-02-12T14:48:07.120Z,19.30
2019-02-12T14:53:12.438Z,11.47
2019-02-12T14:58:17.115Z,13.80
2019-02-12T15:03:21.717Z,14.20
2019-02-12T15:08:26.408Z,15.90
2019-02-12T15:13:31.039Z,32.50
2019-02-12T15:18:35.780Z,24.63
2019-02-12T15:23:40.628Z,9.90
2019-02-12T15:28:46.605Z,10.30
2019-02-12T15:33:51.443Z,43.00
2019-02-12T15:38:56.292Z,19.83
2019-02-12T15:44:02.260Z,23.67
2019-02-12T15:49:07.851Z,26.37
2019-02-12T15:54:15.442Z,33.17
2019-02-12T15:59:21.395Z,14.70
2019-02-12T16:04:26.249Z,9.07
2019-02-12T16:09:31.649Z,16.17
2019-02-12T16:14:40.181Z,20.00
2019-02-12T16:19:46.937Z,23.50
2019-02-12T16:24:51.478Z,9.80
2019-02-12T16:29:56.424Z,14.73
2019-02-12T16:35:02.605Z,18.03
2019-02-12T16:40:15.614Z,20.63
2019-02-12T16:45:23.441Z,12.07
2019-02-12T16:50:28.186Z,30.97
2019-02-12T16:55:34.567Z,12.00
2019-02-12T17:00:39.746Z,22.30
2019-02-12T17:05:44.564Z,28.47
2019-02-12T17:10:49.895Z,14.50
2019-02-12T17:15:54.662Z,13.03
2019-02-12T17:21:01.081Z,24.80
2019-02-12T17:26:06.372Z,19.00
2019-02-12T17:31:12.109Z,15.37
2019-02-12T17:36:17.119Z,16.70
2019-02-12T17:41:23.930Z,18.27
2019-02-12T17:46:28.905Z,22.77
2019-02-12T17:51:33.984Z,15.30
2019-02-12T17:56:39.361Z,29.30
2019-02-12T18:01:44.753Z,22.53
2019-02-12T18:06:50.099Z,17.13
2019-02-12T18:11:54.761Z,16.97
2019-02-12T18:16:59.565Z,16.20
2019-02-12T18:22:04.308Z,24.13
2019-02-12T18:27:09.064Z,19.47
2019-02-12T18:32:13.796Z,13.23
2019-02-12T18:37:20.255Z,15.40
2019-02-12T18:42:25.122Z,39.63
2019-02-12T18:47:31.521Z,29.80
2019-02-12T18:52:36.110Z,22.90
2019-02-12T18:57:40.991Z,22.47
2019-02-12T19:02:49.590Z,19.83
2019-02-12T19:07:54.976Z,18.33
2019-02-12T19:13:00.246Z,19.23
2019-02-12T19:18:10.629Z,20.97
2019-02-12T19:23:15.573Z,19.50
2019-02-12T19:28:22.734Z,21.50
2019-02-12T19:33:27.706Z,16.63
2019-02-12T19:38:32.793Z,16.83
2019-02-12T19:43:38.651Z,22.93
2019-02-12T19:48:44.233Z,24.97
2019-02-12T19:53:49.107Z,18.87
2019-02-12T19:58:53.885Z,35.13
2019-02-12T20:03:58.618Z,43.03
2019-02-12T20:09:04.899Z,25.83
2019-02-12T20:14:11.298Z,23.70
2019-02-12T20:19:16.647Z,17.67
2019-02-12T20:24:21.902Z,18.20
2019-02-12T20:29:26.739Z,19.80
2019-02-12T20:34:31.707Z,37.77
2019-02-12T20:39:36.402Z,25.33
2019-02-12T20:44:41.280Z,18.67
2019-02-12T20:49:46.260Z,14.10
2019-02-12T20:54:52.298Z,10.77
2019-02-12T20:59:57.044Z,13.30
2019-02-12T21:05:01.990Z,12.43
2019-02-12T21:10:12.310Z,16.57
2019-02-12T21:15:27.364Z,14.60
2019-02-12T21:20:32.288Z,20.27
2019-02-12T21:25:37.054Z,23.40
2019-02-12T21:30:42.765Z,17.50
2019-02-12T21:35:47.639Z,22.53
2019-02-12T21:40:52.911Z,18.30
2019-02-12T21:45:57.540Z,17.83
2019-02-12T21:51:03.817Z,18.57
2019-02-12T21:56:08.560Z,15.70
2019-02-12T22:01:13.306Z,19.33
2019-02-12T22:06:19.106Z,16.73
2019-02-12T22:11:23.718Z,18.30
2019-02-12T22:16:28.449Z,14.43
2019-02-12T22:21:33.631Z,10.17
2019-02-12T22:26:38.365Z,11.17
2019-02-12T22:31:42.986Z,19.43
2019-02-12T22:36:47.625Z,14.90
2019-02-12T22:41:54.227Z,16.20
2019-02-12T22:46:58.955Z,15.90
2019-02-12T22:52:03.716Z,20.00
2019-02-12T22:57:08.341Z,18.40
2019-02-12T23:02:13.079Z,8.37
2019-02-12T23:07:17.736Z,4.20
2019-02-12T23:12:22.465Z,3.17
2019-02-12T23:17:27.386Z,2.97
2019-02-12T23:22:32.154Z,1.90
2019-02-12T23:27:37.923Z,1.63
2019-02-12T23:32:42.663Z,1.43
2019-02-12T23:37:47.409Z,1.40
2019-02-12T23:42:53.173Z,1.50
2019-02-12T23:47:57.913Z,2.00
2019-02-12T23:53:02.653Z,2.43
2019-02-12T23:58:07.426Z,2.03
